sensor_id;sensor_type;location;lat;lon;timestamp;P1;durP1;ratioP1;P2;durP2;ratioP2
27402;SDS011;14862;49.494;8.530;2023-02-15T00:00:54;92.60;;;32.70;;
27402;SDS011;14862;49.494;8.530;2023-02-15T00:03:20;87.05;;;32.72;;
27402;SDS011;14862;49.494;8.530;2023-02-15T00:05:45;103.82;;;32.13;;
27402;SDS011;14862;49.494;8.530;2023-02-15T00:08:10;90.47;;;32.08;;
27402;SDS011;14862;49.494;8.530;2023-02-15T00:10:36;89.32;;;33.65;;
27402;SDS011;14862;49.494;8.530;2023-02-15T00:13:01;80.13;;;33.00;;
27402;SDS011;14862;49.494;8.530;2023-02-15T00:15:26;76.85;;;31.48;;
27402;SDS011;14862;49.494;8.530;2023-02-15T00:17:51;90.90;;;31.92;;
27402;SDS011;14862;49.494;8.530;2023-02-15T00:20:16;119.90;;;34.83;;
27402;SDS011;14862;49.494;8.530;2023-02-15T00:22:43;77.95;;;33.05;;
27402;SDS011;14862;49.494;8.530;2023-02-15T00:25:08;110.65;;;32.30;;
27402;SDS011;14862;49.494;8.530;2023-02-15T00:27:33;87.53;;;33.05;;
27402;SDS011;14862;49.494;8.530;2023-02-15T00:29:59;107.32;;;30.20;;
27402;SDS011;14862;49.494;8.530;2023-02-15T00:32:24;88.22;;;33.45;;
27402;SDS011;14862;49.494;8.530;2023-02-15T00:34:50;93.80;;;31.15;;
27402;SDS011;14862;49.494;8.530;2023-02-15T00:37:15;94.78;;;30.02;;
27402;SDS011;14862;49.494;8.530;2023-02-15T00:39:40;100.33;;;32.13;;
27402;SDS011;14862;49.494;8.530;2023-02-15T00:42:05;104.28;;;34.67;;
27402;SDS011;14862;49.494;8.530;2023-02-15T00:44:30;90.70;;;32.75;;
27402;SDS011;14862;49.494;8.530;2023-02-15T00:46:56;95.43;;;32.60;;
27402;SDS011;14862;49.494;8.530;2023-02-15T00:49:21;99.60;;;32.90;;
27402;SDS011;14862;49.494;8.530;2023-02-15T00:51:46;89.85;;;32.58;;
27402;SDS011;14862;49.494;8.530;2023-02-15T00:54:12;88.25;;;32.10;;
27402;SDS011;14862;49.494;8.530;2023-02-15T00:56:37;86.65;;;32.58;;
27402;SDS011;14862;49.494;8.530;2023-02-15T00:59:02;101.35;;;34.80;;
27402;SDS011;14862;49.494;8.530;2023-02-15T01:01:27;77.10;;;32.08;;
27402;SDS011;14862;49.494;8.530;2023-02-15T01:03:52;81.50;;;32.55;;
27402;SDS011;14862;49.494;8.530;2023-02-15T01:06:18;83.40;;;32.13;;
27402;SDS011;14862;49.494;8.530;2023-02-15T01:08:44;80.78;;;33.78;;
27402;SDS011;14862;49.494;8.530;2023-02-15T01:11:10;89.55;;;32.60;;
27402;SDS011;14862;49.494;8.530;2023-02-15T01:13:36;88.88;;;32.70;;
27402;SDS011;14862;49.494;8.530;2023-02-15T01:16:02;79.70;;;34.05;;
27402;SDS011;14862;49.494;8.530;2023-02-15T01:18:27;86.28;;;32.15;;
27402;SDS011;14862;49.494;8.530;2023-02-15T01:20:53;86.38;;;33.20;;
27402;SDS011;14862;49.494;8.530;2023-02-15T01:23:18;116.95;;;34.55;;
27402;SDS011;14862;49.494;8.530;2023-02-15T01:25:43;96.75;;;36.97;;
27402;SDS011;14862;49.494;8.530;2023-02-15T01:28:08;148.82;;;37.88;;
27402;SDS011;14862;49.494;8.530;2023-02-15T01:30:33;85.53;;;33.28;;
27402;SDS011;14862;49.494;8.530;2023-02-15T01:32:59;98.75;;;33.92;;
27402;SDS011;14862;49.494;8.530;2023-02-15T01:35:26;106.70;;;38.20;;
27402;SDS011;14862;49.494;8.530;2023-02-15T01:37:51;109.47;;;39.92;;
27402;SDS011;14862;49.494;8.530;2023-02-15T01:40:17;134.40;;;37.93;;
27402;SDS011;14862;49.494;8.530;2023-02-15T01:42:43;107.43;;;36.75;;
27402;SDS011;14862;49.494;8.530;2023-02-15T01:45:16;115.75;;;35.42;;
27402;SDS011;14862;49.494;8.530;2023-02-15T01:47:47;96.50;;;36.70;;
27402;SDS011;14862;49.494;8.530;2023-02-15T01:50:16;137.90;;;35.92;;
27402;SDS011;14862;49.494;8.530;2023-02-15T01:52:52;100.30;;;35.97;;
27402;SDS011;14862;49.494;8.530;2023-02-15T01:55:19;89.32;;;36.25;;
27402;SDS011;14862;49.494;8.530;2023-02-15T01:57:45;90.68;;;35.40;;
27402;SDS011;14862;49.494;8.530;2023-02-15T02:00:12;108.60;;;37.72;;
27402;SDS011;14862;49.494;8.530;2023-02-15T02:02:37;90.28;;;35.40;;
27402;SDS011;14862;49.494;8.530;2023-02-15T02:05:03;93.18;;;34.33;;
27402;SDS011;14862;49.494;8.530;2023-02-15T02:07:32;94.30;;;35.72;;
27402;SDS011;14862;49.494;8.530;2023-02-15T02:09:58;100.07;;;36.88;;
27402;SDS011;14862;49.494;8.530;2023-02-15T02:12:23;107.18;;;37.08;;
27402;SDS011;14862;49.494;8.530;2023-02-15T02:14:49;91.63;;;35.65;;
27402;SDS011;14862;49.494;8.530;2023-02-15T02:17:16;95.90;;;34.17;;
27402;SDS011;14862;49.494;8.530;2023-02-15T02:22:53;93.57;;;37.33;;
27402;SDS011;14862;49.494;8.530;2023-02-15T02:27:37;94.78;;;35.53;;
27402;SDS011;14862;49.494;8.530;2023-02-15T02:35:19;103.70;;;35.95;;
27402;SDS011;14862;49.494;8.530;2023-02-15T02:38:02;86.30;;;34.90;;
27402;SDS011;14862;49.494;8.530;2023-02-15T02:42:59;83.38;;;35.00;;
27402;SDS011;14862;49.494;8.530;2023-02-15T02:45:39;95.32;;;34.90;;
27402;SDS011;14862;49.494;8.530;2023-02-15T02:48:07;89.45;;;33.58;;
27402;SDS011;14862;49.494;8.530;2023-02-15T02:50:34;82.63;;;32.80;;
27402;SDS011;14862;49.494;8.530;2023-02-15T02:52:59;92.38;;;33.63;;
27402;SDS011;14862;49.494;8.530;2023-02-15T02:55:35;101.10;;;33.85;;
27402;SDS011;14862;49.494;8.530;2023-02-15T03:00:29;97.70;;;32.53;;
27402;SDS011;14862;49.494;8.530;2023-02-15T03:03:00;90.97;;;31.58;;
27402;SDS011;14862;49.494;8.530;2023-02-15T03:05:29;96.07;;;33.17;;
27402;SDS011;14862;49.494;8.530;2023-02-15T03:07:55;84.55;;;31.23;;
27402;SDS011;14862;49.494;8.530;2023-02-15T03:10:22;91.15;;;31.60;;
27402;SDS011;14862;49.494;8.530;2023-02-15T03:12:48;87.07;;;32.70;;
27402;SDS011;14862;49.494;8.530;2023-02-15T03:17:40;83.80;;;32.60;;
27402;SDS011;14862;49.494;8.530;2023-02-15T03:20:12;70.55;;;30.35;;
27402;SDS011;14862;49.494;8.530;2023-02-15T03:22:41;90.22;;;32.25;;
27402;SDS011;14862;49.494;8.530;2023-02-15T03:25:12;87.90;;;31.73;;
27402;SDS011;14862;49.494;8.530;2023-02-15T03:27:39;88.57;;;33.33;;
27402;SDS011;14862;49.494;8.530;2023-02-15T03:30:06;82.53;;;31.00;;
27402;SDS011;14862;49.494;8.530;2023-02-15T03:32:32;84.60;;;34.58;;
27402;SDS011;14862;49.494;8.530;2023-02-15T03:34:58;81.50;;;31.75;;
27402;SDS011;14862;49.494;8.530;2023-02-15T03:37:41;77.85;;;32.40;;
27402;SDS011;14862;49.494;8.530;2023-02-15T03:42:58;89.40;;;32.05;;
27402;SDS011;14862;49.494;8.530;2023-02-15T03:45:25;75.80;;;32.20;;
27402;SDS011;14862;49.494;8.530;2023-02-15T03:47:53;90.90;;;34.00;;
27402;SDS011;14862;49.494;8.530;2023-02-15T03:50:20;84.55;;;33.20;;
27402;SDS011;14862;49.494;8.530;2023-02-15T03:53:06;84.00;;;30.73;;
27402;SDS011;14862;49.494;8.530;2023-02-15T03:55:33;89.10;;;32.35;;
27402;SDS011;14862;49.494;8.530;2023-02-15T03:57:58;75.55;;;30.38;;
27402;SDS011;14862;49.494;8.530;2023-02-15T04:00:44;77.22;;;31.58;;
27402;SDS011;14862;49.494;8.530;2023-02-15T04:05:59;85.82;;;32.97;;
27402;SDS011;14862;49.494;8.530;2023-02-15T04:08:26;96.72;;;34.67;;
27402;SDS011;14862;49.494;8.530;2023-02-15T04:11:11;105.40;;;35.17;;
27402;SDS011;14862;49.494;8.530;2023-02-15T04:13:36;99.30;;;33.67;;
27402;SDS011;14862;49.494;8.530;2023-02-15T04:16:01;100.63;;;33.67;;
27402;SDS011;14862;49.494;8.530;2023-02-15T04:18:33;91.88;;;34.55;;
27402;SDS011;14862;49.494;8.530;2023-02-15T04:21:18;90.70;;;33.42;;
27402;SDS011;14862;49.494;8.530;2023-02-15T04:24:02;85.32;;;34.25;;
27402;SDS011;14862;49.494;8.530;2023-02-15T04:26:46;82.32;;;30.42;;
27402;SDS011;14862;49.494;8.530;2023-02-15T04:29:13;62.83;;;27.20;;
27402;SDS011;14862;49.494;8.530;2023-02-15T04:31:38;68.88;;;28.75;;
27402;SDS011;14862;49.494;8.530;2023-02-15T04:34:03;87.55;;;33.35;;
27402;SDS011;14862;49.494;8.530;2023-02-15T04:36:28;123.03;;;34.47;;
27402;SDS011;14862;49.494;8.530;2023-02-15T04:38:53;93.07;;;33.50;;
27402;SDS011;14862;49.494;8.530;2023-02-15T04:41:19;91.40;;;35.45;;
27402;SDS011;14862;49.494;8.530;2023-02-15T04:43:44;109.20;;;34.92;;
27402;SDS011;14862;49.494;8.530;2023-02-15T04:46:09;81.80;;;31.40;;
27402;SDS011;14862;49.494;8.530;2023-02-15T04:48:34;102.68;;;34.78;;
27402;SDS011;14862;49.494;8.530;2023-02-15T04:51:04;87.30;;;32.38;;
27402;SDS011;14862;49.494;8.530;2023-02-15T04:53:29;88.93;;;33.00;;
27402;SDS011;14862;49.494;8.530;2023-02-15T04:55:54;89.90;;;33.60;;
27402;SDS011;14862;49.494;8.530;2023-02-15T04:58:20;88.13;;;30.92;;
27402;SDS011;14862;49.494;8.530;2023-02-15T05:00:45;90.88;;;32.88;;
27402;SDS011;14862;49.494;8.530;2023-02-15T05:03:10;124.55;;;36.08;;
27402;SDS011;14862;49.494;8.530;2023-02-15T05:05:35;77.85;;;30.45;;
27402;SDS011;14862;49.494;8.530;2023-02-15T05:08:00;73.33;;;28.07;;
27402;SDS011;14862;49.494;8.530;2023-02-15T05:10:26;81.18;;;30.02;;
27402;SDS011;14862;49.494;8.530;2023-02-15T05:12:51;83.15;;;30.60;;
27402;SDS011;14862;49.494;8.530;2023-02-15T05:15:16;74.93;;;30.40;;
27402;SDS011;14862;49.494;8.530;2023-02-15T05:17:41;76.38;;;30.85;;
27402;SDS011;14862;49.494;8.530;2023-02-15T05:20:07;74.95;;;28.50;;
27402;SDS011;14862;49.494;8.530;2023-02-15T05:22:32;68.28;;;28.73;;
27402;SDS011;14862;49.494;8.530;2023-02-15T05:24:57;73.68;;;29.80;;
27402;SDS011;14862;49.494;8.530;2023-02-15T05:27:41;75.50;;;29.52;;
27402;SDS011;14862;49.494;8.530;2023-02-15T05:30:25;85.55;;;27.73;;
27402;SDS011;14862;49.494;8.530;2023-02-15T05:32:50;70.88;;;27.08;;
27402;SDS011;14862;49.494;8.530;2023-02-15T05:35:16;79.50;;;28.83;;
27402;SDS011;14862;49.494;8.530;2023-02-15T05:37:41;83.55;;;32.05;;
27402;SDS011;14862;49.494;8.530;2023-02-15T05:40:07;75.97;;;28.60;;
27402;SDS011;14862;49.494;8.530;2023-02-15T05:42:32;106.70;;;29.75;;
27402;SDS011;14862;49.494;8.530;2023-02-15T05:44:59;84.65;;;30.50;;
27402;SDS011;14862;49.494;8.530;2023-02-15T05:47:24;84.28;;;31.52;;
27402;SDS011;14862;49.494;8.530;2023-02-15T05:49:49;81.28;;;32.47;;
27402;SDS011;14862;49.494;8.530;2023-02-15T05:52:15;75.85;;;30.80;;
27402;SDS011;14862;49.494;8.530;2023-02-15T05:54:40;74.80;;;29.30;;
27402;SDS011;14862;49.494;8.530;2023-02-15T05:57:05;76.37;;;29.73;;
27402;SDS011;14862;49.494;8.530;2023-02-15T05:59:30;78.72;;;29.02;;
27402;SDS011;14862;49.494;8.530;2023-02-15T06:01:55;76.70;;;29.13;;
27402;SDS011;14862;49.494;8.530;2023-02-15T06:04:21;68.47;;;27.75;;
27402;SDS011;14862;49.494;8.530;2023-02-15T06:06:46;68.63;;;28.05;;
27402;SDS011;14862;49.494;8.530;2023-02-15T06:09:12;66.15;;;27.80;;
27402;SDS011;14862;49.494;8.530;2023-02-15T06:11:37;72.05;;;30.85;;
27402;SDS011;14862;49.494;8.530;2023-02-15T06:14:03;64.18;;;28.00;;
27402;SDS011;14862;49.494;8.530;2023-02-15T06:16:28;60.25;;;26.83;;
27402;SDS011;14862;49.494;8.530;2023-02-15T06:18:53;60.72;;;26.92;;
27402;SDS011;14862;49.494;8.530;2023-02-15T06:21:18;65.35;;;28.70;;
27402;SDS011;14862;49.494;8.530;2023-02-15T06:23:44;61.00;;;28.35;;
27402;SDS011;14862;49.494;8.530;2023-02-15T06:26:09;63.55;;;27.33;;
27402;SDS011;14862;49.494;8.530;2023-02-15T06:28:34;58.83;;;27.98;;
27402;SDS011;14862;49.494;8.530;2023-02-15T06:30:59;65.20;;;28.08;;
27402;SDS011;14862;49.494;8.530;2023-02-15T06:33:25;68.70;;;30.37;;
27402;SDS011;14862;49.494;8.530;2023-02-15T06:35:50;72.68;;;29.65;;
27402;SDS011;14862;49.494;8.530;2023-02-15T06:38:15;81.93;;;31.50;;
27402;SDS011;14862;49.494;8.530;2023-02-15T06:40:40;89.75;;;33.03;;
27402;SDS011;14862;49.494;8.530;2023-02-15T06:43:06;86.15;;;30.73;;
27402;SDS011;14862;49.494;8.530;2023-02-15T06:45:31;73.45;;;30.67;;
27402;SDS011;14862;49.494;8.530;2023-02-15T06:47:56;86.65;;;30.92;;
27402;SDS011;14862;49.494;8.530;2023-02-15T06:50:21;86.80;;;29.65;;
27402;SDS011;14862;49.494;8.530;2023-02-15T06:52:46;83.05;;;28.23;;
27402;SDS011;14862;49.494;8.530;2023-02-15T06:55:12;87.43;;;29.38;;
27402;SDS011;14862;49.494;8.530;2023-02-15T06:57:37;82.43;;;29.52;;
27402;SDS011;14862;49.494;8.530;2023-02-15T07:00:02;86.65;;;30.05;;
27402;SDS011;14862;49.494;8.530;2023-02-15T07:02:29;95.60;;;32.78;;
27402;SDS011;14862;49.494;8.530;2023-02-15T07:04:55;88.63;;;31.27;;
27402;SDS011;14862;49.494;8.530;2023-02-15T07:07:20;100.38;;;31.73;;
27402;SDS011;14862;49.494;8.530;2023-02-15T07:09:45;85.45;;;29.92;;
27402;SDS011;14862;49.494;8.530;2023-02-15T07:12:10;81.50;;;30.35;;
27402;SDS011;14862;49.494;8.530;2023-02-15T07:14:54;84.53;;;29.65;;
27402;SDS011;14862;49.494;8.530;2023-02-15T07:17:20;81.88;;;31.30;;
27402;SDS011;14862;49.494;8.530;2023-02-15T07:19:45;84.38;;;30.45;;
27402;SDS011;14862;49.494;8.530;2023-02-15T07:22:10;88.32;;;31.15;;
27402;SDS011;14862;49.494;8.530;2023-02-15T07:24:35;82.85;;;29.75;;
27402;SDS011;14862;49.494;8.530;2023-02-15T07:27:00;71.90;;;31.13;;
27402;SDS011;14862;49.494;8.530;2023-02-15T07:29:26;90.72;;;32.70;;
27402;SDS011;14862;49.494;8.530;2023-02-15T07:31:51;79.78;;;30.73;;
27402;SDS011;14862;49.494;8.530;2023-02-15T07:34:16;79.13;;;30.02;;
27402;SDS011;14862;49.494;8.530;2023-02-15T07:36:42;73.28;;;27.92;;
27402;SDS011;14862;49.494;8.530;2023-02-15T07:39:09;70.47;;;27.40;;
27402;SDS011;14862;49.494;8.530;2023-02-15T07:41:34;76.72;;;29.02;;
27402;SDS011;14862;49.494;8.530;2023-02-15T07:43:59;64.35;;;28.65;;
27402;SDS011;14862;49.494;8.530;2023-02-15T07:46:24;70.88;;;30.02;;
27402;SDS011;14862;49.494;8.530;2023-02-15T07:48:50;64.13;;;28.42;;
27402;SDS011;14862;49.494;8.530;2023-02-15T07:51:15;64.93;;;27.85;;
27402;SDS011;14862;49.494;8.530;2023-02-15T07:53:40;55.08;;;27.08;;
27402;SDS011;14862;49.494;8.530;2023-02-15T07:56:07;55.92;;;26.98;;
27402;SDS011;14862;49.494;8.530;2023-02-15T07:58:33;55.30;;;27.25;;
27402;SDS011;14862;49.494;8.530;2023-02-15T08:01:17;59.90;;;26.98;;
27402;SDS011;14862;49.494;8.530;2023-02-15T08:03:42;66.13;;;28.55;;
27402;SDS011;14862;49.494;8.530;2023-02-15T08:06:07;70.72;;;29.48;;
27402;SDS011;14862;49.494;8.530;2023-02-15T08:08:33;63.03;;;28.27;;
27402;SDS011;14862;49.494;8.530;2023-02-15T08:10:59;66.75;;;30.60;;
27402;SDS011;14862;49.494;8.530;2023-02-15T08:13:44;65.28;;;29.98;;
27402;SDS011;14862;49.494;8.530;2023-02-15T08:16:22;61.80;;;29.42;;
27402;SDS011;14862;49.494;8.530;2023-02-15T08:18:47;63.28;;;31.27;;
27402;SDS011;14862;49.494;8.530;2023-02-15T08:21:12;57.63;;;28.08;;
27402;SDS011;14862;49.494;8.530;2023-02-15T08:23:38;57.88;;;28.45;;
27402;SDS011;14862;49.494;8.530;2023-02-15T08:26:03;55.63;;;27.92;;
27402;SDS011;14862;49.494;8.530;2023-02-15T08:28:29;59.85;;;29.30;;
27402;SDS011;14862;49.494;8.530;2023-02-15T08:30:54;71.15;;;30.40;;
27402;SDS011;14862;49.494;8.530;2023-02-15T08:33:21;62.08;;;29.13;;
27402;SDS011;14862;49.494;8.530;2023-02-15T08:35:46;64.65;;;28.08;;
27402;SDS011;14862;49.494;8.530;2023-02-15T08:38:11;57.53;;;26.15;;
27402;SDS011;14862;49.494;8.530;2023-02-15T08:40:37;57.58;;;27.88;;
27402;SDS011;14862;49.494;8.530;2023-02-15T08:43:03;54.33;;;27.63;;
27402;SDS011;14862;49.494;8.530;2023-02-15T08:45:28;57.67;;;28.75;;
27402;SDS011;14862;49.494;8.530;2023-02-15T08:47:53;69.88;;;32.25;;
27402;SDS011;14862;49.494;8.530;2023-02-15T08:50:18;64.55;;;29.38;;
27402;SDS011;14862;49.494;8.530;2023-02-15T08:52:44;61.72;;;29.02;;
27402;SDS011;14862;49.494;8.530;2023-02-15T08:55:09;59.70;;;27.42;;
27402;SDS011;14862;49.494;8.530;2023-02-15T08:57:34;59.08;;;27.40;;
27402;SDS011;14862;49.494;8.530;2023-02-15T08:59:59;52.92;;;27.05;;
27402;SDS011;14862;49.494;8.530;2023-02-15T09:02:25;52.63;;;25.63;;
27402;SDS011;14862;49.494;8.530;2023-02-15T09:04:50;48.67;;;25.25;;
27402;SDS011;14862;49.494;8.530;2023-02-15T09:07:16;44.70;;;23.90;;
27402;SDS011;14862;49.494;8.530;2023-02-15T09:09:43;44.38;;;23.83;;
27402;SDS011;14862;49.494;8.530;2023-02-15T09:12:10;45.40;;;22.88;;
27402;SDS011;14862;49.494;8.530;2023-02-15T09:14:35;44.22;;;24.08;;
27402;SDS011;14862;49.494;8.530;2023-02-15T09:17:01;50.63;;;24.17;;
27402;SDS011;14862;49.494;8.530;2023-02-15T09:19:26;42.22;;;23.83;;
27402;SDS011;14862;49.494;8.530;2023-02-15T09:21:52;51.88;;;25.88;;
27402;SDS011;14862;49.494;8.530;2023-02-15T09:24:17;43.92;;;23.60;;
27402;SDS011;14862;49.494;8.530;2023-02-15T09:26:44;50.65;;;25.10;;
27402;SDS011;14862;49.494;8.530;2023-02-15T09:29:10;47.08;;;24.50;;
27402;SDS011;14862;49.494;8.530;2023-02-15T09:31:44;45.70;;;24.00;;
27402;SDS011;14862;49.494;8.530;2023-02-15T09:34:10;44.17;;;24.73;;
27402;SDS011;14862;49.494;8.530;2023-02-15T09:36:37;50.25;;;24.08;;
27402;SDS011;14862;49.494;8.530;2023-02-15T09:39:13;45.92;;;23.00;;
27402;SDS011;14862;49.494;8.530;2023-02-15T09:44:15;40.35;;;21.98;;
27402;SDS011;14862;49.494;8.530;2023-02-15T09:46:54;38.60;;;21.48;;
27402;SDS011;14862;49.494;8.530;2023-02-15T09:52:05;43.63;;;22.65;;
27402;SDS011;14862;49.494;8.530;2023-02-15T09:54:38;39.97;;;20.83;;
27402;SDS011;14862;49.494;8.530;2023-02-15T09:57:10;39.10;;;21.50;;
27402;SDS011;14862;49.494;8.530;2023-02-15T10:12:07;39.47;;;21.07;;
27402;SDS011;14862;49.494;8.530;2023-02-15T10:19:50;41.17;;;22.77;;
27402;SDS011;14862;49.494;8.530;2023-02-15T10:27:21;39.20;;;22.77;;
27402;SDS011;14862;49.494;8.530;2023-02-15T10:29:57;48.75;;;24.25;;
27402;SDS011;14862;49.494;8.530;2023-02-15T10:32:26;49.58;;;25.90;;
27402;SDS011;14862;49.494;8.530;2023-02-15T10:35:12;46.13;;;24.65;;
27402;SDS011;14862;49.494;8.530;2023-02-15T10:45:29;53.95;;;27.65;;
27402;SDS011;14862;49.494;8.530;2023-02-15T11:00:48;58.25;;;28.00;;
27402;SDS011;14862;49.494;8.530;2023-02-15T11:03:37;63.08;;;30.73;;
27402;SDS011;14862;49.494;8.530;2023-02-15T11:06:06;67.93;;;32.90;;
27402;SDS011;14862;49.494;8.530;2023-02-15T11:08:36;65.97;;;32.13;;
27402;SDS011;14862;49.494;8.530;2023-02-15T11:11:03;58.58;;;28.95;;
27402;SDS011;14862;49.494;8.530;2023-02-15T11:13:36;63.53;;;32.33;;
27402;SDS011;14862;49.494;8.530;2023-02-15T11:16:05;58.35;;;31.05;;
27402;SDS011;14862;49.494;8.530;2023-02-15T11:23:21;63.28;;;31.60;;
27402;SDS011;14862;49.494;8.530;2023-02-15T11:25:58;60.60;;;30.27;;
27402;SDS011;14862;49.494;8.530;2023-02-15T11:28:27;61.55;;;31.73;;
27402;SDS011;14862;49.494;8.530;2023-02-15T11:30:55;58.53;;;30.77;;
27402;SDS011;14862;49.494;8.530;2023-02-15T11:33:24;55.55;;;29.38;;
27402;SDS011;14862;49.494;8.530;2023-02-15T11:38:17;54.25;;;29.55;;
27402;SDS011;14862;49.494;8.530;2023-02-15T11:40:46;61.83;;;31.00;;
27402;SDS011;14862;49.494;8.530;2023-02-15T11:43:21;56.58;;;30.13;;
27402;SDS011;14862;49.494;8.530;2023-02-15T11:45:48;66.95;;;32.67;;
27402;SDS011;14862;49.494;8.530;2023-02-15T11:48:14;62.33;;;31.23;;
27402;SDS011;14862;49.494;8.530;2023-02-15T11:50:40;60.47;;;32.70;;
27402;SDS011;14862;49.494;8.530;2023-02-15T11:53:12;57.67;;;31.55;;
27402;SDS011;14862;49.494;8.530;2023-02-15T11:55:39;51.60;;;28.10;;
27402;SDS011;14862;49.494;8.530;2023-02-15T12:00:49;49.05;;;27.42;;
27402;SDS011;14862;49.494;8.530;2023-02-15T12:03:18;46.47;;;26.33;;
27402;SDS011;14862;49.494;8.530;2023-02-15T12:05:45;48.90;;;26.38;;
27402;SDS011;14862;49.494;8.530;2023-02-15T12:08:13;46.50;;;26.65;;
27402;SDS011;14862;49.494;8.530;2023-02-15T12:10:41;48.25;;;25.15;;
27402;SDS011;14862;49.494;8.530;2023-02-15T12:15:33;45.63;;;25.03;;
27402;SDS011;14862;49.494;8.530;2023-02-15T12:18:00;46.88;;;26.98;;
27402;SDS011;14862;49.494;8.530;2023-02-15T12:20:28;47.22;;;27.10;;
27402;SDS011;14862;49.494;8.530;2023-02-15T12:22:55;49.83;;;28.83;;
27402;SDS011;14862;49.494;8.530;2023-02-15T12:27:54;52.25;;;29.38;;
27402;SDS011;14862;49.494;8.530;2023-02-15T12:30:25;53.70;;;29.45;;
27402;SDS011;14862;49.494;8.530;2023-02-15T12:35:36;53.22;;;28.95;;
27402;SDS011;14862;49.494;8.530;2023-02-15T12:38:20;44.42;;;27.08;;
27402;SDS011;14862;49.494;8.530;2023-02-15T12:41:03;52.80;;;29.73;;
27402;SDS011;14862;49.494;8.530;2023-02-15T12:45:53;49.95;;;28.45;;
27402;SDS011;14862;49.494;8.530;2023-02-15T12:48:37;49.80;;;28.83;;
27402;SDS011;14862;49.494;8.530;2023-02-15T12:51:07;47.42;;;27.50;;
27402;SDS011;14862;49.494;8.530;2023-02-15T12:53:33;46.53;;;27.48;;
27402;SDS011;14862;49.494;8.530;2023-02-15T12:58:25;53.25;;;28.13;;
27402;SDS011;14862;49.494;8.530;2023-02-15T13:01:33;48.88;;;28.67;;
27402;SDS011;14862;49.494;8.530;2023-02-15T13:06:17;48.15;;;27.80;;
27402;SDS011;14862;49.494;8.530;2023-02-15T13:08:46;49.95;;;29.15;;
27402;SDS011;14862;49.494;8.530;2023-02-15T13:11:13;53.92;;;30.92;;
27402;SDS011;14862;49.494;8.530;2023-02-15T13:13:55;49.28;;;29.13;;
27402;SDS011;14862;49.494;8.530;2023-02-15T13:16:30;50.95;;;30.90;;
27402;SDS011;14862;49.494;8.530;2023-02-15T13:18:56;50.67;;;29.77;;
27402;SDS011;14862;49.494;8.530;2023-02-15T13:21:23;52.75;;;28.67;;
27402;SDS011;14862;49.494;8.530;2023-02-15T13:23:57;48.88;;;28.27;;
27402;SDS011;14862;49.494;8.530;2023-02-15T13:26:25;47.83;;;29.38;;
27402;SDS011;14862;49.494;8.530;2023-02-15T13:39:18;46.60;;;27.58;;
27402;SDS011;14862;49.494;8.530;2023-02-15T13:41:47;45.63;;;27.30;;
27402;SDS011;14862;49.494;8.530;2023-02-15T13:47:27;47.40;;;27.92;;
27402;SDS011;14862;49.494;8.530;2023-02-15T13:52:24;53.63;;;28.10;;
27402;SDS011;14862;49.494;8.530;2023-02-15T13:57:27;43.17;;;27.02;;
27402;SDS011;14862;49.494;8.530;2023-02-15T14:05:15;51.60;;;31.20;;
27402;SDS011;14862;49.494;8.530;2023-02-15T14:15:26;48.85;;;29.58;;
27402;SDS011;14862;49.494;8.530;2023-02-15T14:23:12;49.05;;;30.75;;
27402;SDS011;14862;49.494;8.530;2023-02-15T14:25:42;50.00;;;30.45;;
27402;SDS011;14862;49.494;8.530;2023-02-15T14:28:14;48.03;;;29.85;;
27402;SDS011;14862;49.494;8.530;2023-02-15T14:30:44;53.00;;;32.58;;
27402;SDS011;14862;49.494;8.530;2023-02-15T14:33:33;52.90;;;31.77;;
27402;SDS011;14862;49.494;8.530;2023-02-15T14:35:55;49.25;;;30.48;;
27402;SDS011;14862;49.494;8.530;2023-02-15T14:38:38;52.47;;;31.17;;
27402;SDS011;14862;49.494;8.530;2023-02-15T14:41:10;54.22;;;33.15;;
27402;SDS011;14862;49.494;8.530;2023-02-15T14:46:35;56.53;;;32.88;;
27402;SDS011;14862;49.494;8.530;2023-02-15T14:59:27;56.67;;;32.25;;
27402;SDS011;14862;49.494;8.530;2023-02-15T15:04:33;60.35;;;33.47;;
27402;SDS011;14862;49.494;8.530;2023-02-15T15:09:43;52.88;;;31.95;;
27402;SDS011;14862;49.494;8.530;2023-02-15T15:14:47;57.50;;;33.63;;
27402;SDS011;14862;49.494;8.530;2023-02-15T15:17:51;59.15;;;35.28;;
27402;SDS011;14862;49.494;8.530;2023-02-15T15:22:33;62.55;;;33.90;;
27402;SDS011;14862;49.494;8.530;2023-02-15T15:32:39;61.03;;;33.65;;
27402;SDS011;14862;49.494;8.530;2023-02-15T15:35:15;61.10;;;33.85;;
27402;SDS011;14862;49.494;8.530;2023-02-15T15:40:20;63.22;;;34.45;;
27402;SDS011;14862;49.494;8.530;2023-02-15T15:48:22;64.60;;;35.20;;
27402;SDS011;14862;49.494;8.530;2023-02-15T15:50:52;81.05;;;36.33;;
27402;SDS011;14862;49.494;8.530;2023-02-15T15:53:20;60.20;;;33.90;;
27402;SDS011;14862;49.494;8.530;2023-02-15T15:55:46;65.93;;;36.53;;
27402;SDS011;14862;49.494;8.530;2023-02-15T15:58:12;61.40;;;35.05;;
27402;SDS011;14862;49.494;8.530;2023-02-15T16:00:47;63.45;;;35.50;;
27402;SDS011;14862;49.494;8.530;2023-02-15T16:03:23;65.97;;;35.03;;
27402;SDS011;14862;49.494;8.530;2023-02-15T16:05:48;64.82;;;35.78;;
27402;SDS011;14862;49.494;8.530;2023-02-15T16:08:40;65.10;;;36.38;;
27402;SDS011;14862;49.494;8.530;2023-02-15T16:11:14;67.22;;;36.55;;
27402;SDS011;14862;49.494;8.530;2023-02-15T16:13:41;64.60;;;35.70;;
27402;SDS011;14862;49.494;8.530;2023-02-15T16:16:07;65.40;;;36.08;;
27402;SDS011;14862;49.494;8.530;2023-02-15T16:18:32;68.65;;;37.03;;
27402;SDS011;14862;49.494;8.530;2023-02-15T16:21:01;71.13;;;38.30;;
27402;SDS011;14862;49.494;8.530;2023-02-15T16:28:48;79.43;;;40.42;;
27402;SDS011;14862;49.494;8.530;2023-02-15T16:31:15;82.57;;;40.53;;
27402;SDS011;14862;49.494;8.530;2023-02-15T16:33:41;73.35;;;37.88;;
27402;SDS011;14862;49.494;8.530;2023-02-15T16:36:10;76.40;;;42.10;;
27402;SDS011;14862;49.494;8.530;2023-02-15T16:41:07;80.85;;;41.90;;
27402;SDS011;14862;49.494;8.530;2023-02-15T16:43:33;81.65;;;39.45;;
27402;SDS011;14862;49.494;8.530;2023-02-15T16:46:02;77.60;;;40.05;;
27402;SDS011;14862;49.494;8.530;2023-02-15T16:48:28;79.47;;;39.72;;
27402;SDS011;14862;49.494;8.530;2023-02-15T16:50:54;82.00;;;40.90;;
27402;SDS011;14862;49.494;8.530;2023-02-15T16:53:22;85.80;;;41.60;;
27402;SDS011;14862;49.494;8.530;2023-02-15T16:55:50;80.97;;;40.58;;
27402;SDS011;14862;49.494;8.530;2023-02-15T16:58:17;84.05;;;42.10;;
27402;SDS011;14862;49.494;8.530;2023-02-15T17:00:42;77.47;;;39.85;;
27402;SDS011;14862;49.494;8.530;2023-02-15T17:08:32;78.97;;;38.67;;
27402;SDS011;14862;49.494;8.530;2023-02-15T17:13:29;83.07;;;39.78;;
27402;SDS011;14862;49.494;8.530;2023-02-15T17:18:26;85.40;;;41.15;;
27402;SDS011;14862;49.494;8.530;2023-02-15T17:20:53;82.60;;;39.45;;
27402;SDS011;14862;49.494;8.530;2023-02-15T17:25:47;82.82;;;40.85;;
27402;SDS011;14862;49.494;8.530;2023-02-15T17:28:20;77.60;;;36.20;;
27402;SDS011;14862;49.494;8.530;2023-02-15T17:30:46;66.53;;;35.05;;
27402;SDS011;14862;49.494;8.530;2023-02-15T17:33:45;75.82;;;35.47;;
27402;SDS011;14862;49.494;8.530;2023-02-15T17:38:34;74.43;;;37.85;;
27402;SDS011;14862;49.494;8.530;2023-02-15T17:40:59;75.45;;;36.95;;
27402;SDS011;14862;49.494;8.530;2023-02-15T17:43:24;75.43;;;36.92;;